EGCN Airport Information

Runway Information
Runway 02 Length 9495 ft width 197 ft
Elevation 52 ft Threshold 714 ft Heading 18
Runway 20 Length 9495 ft Width 197 ft
Elevation 26 ft Threshold 281 ft Heading 198
Airport Frequencies
Type APP Name APP Frequency 126.225 MHZ
Type ATIS Name ATIS Frequency 134.95 MHZ
Type EMR Name FIRE Frequency 121.6 MHZ
Type RDR Name RDR Frequency 126.225 MHZ
Type TWR Name TWR Frequency 128.775 MHZ
Type ILS Name Frequency 110.95 MHZ
Airport Navaids
Type NDB Name Doncaster Frequency 338 KHZ
Airport Weather Information & NOTAM
ADDS - METARS form results

(2211 UTC 05 October 2022)
Data provider http://aviationweather.gov/metar/data/
 
METAR text: EGCN 052150Z 22007KT CAVOK 09/05 Q1017
Conditions at: EGCN (DONCASTER SHEFFI, GB) observed 2150 UTC 05 October 2022
Temperature: 9.0°C (48°F)
Dewpoint: 5.0°C (41°F) [RH = 76%]
Pressure (altimeter): 30.03 inches Hg (1017.0 mb)
Winds: from the SW (220 degrees) at 8 MPH (7 knots; 3.6 m/s)
Visibility: 6 or more miles (10+ km)
Ceiling: ceiling and visibility are OK
Clouds: unknown
Weather: no significant weather observed at this time

METAR text: EGCN 052120Z 22013KT CAVOK 10/05 Q1016
Conditions at: EGCN (DONCASTER SHEFFI, GB) observed 2120 UTC 05 October 2022
Temperature: 10.0°C (50°F)
Dewpoint: 5.0°C (41°F) [RH = 71%]
Pressure (altimeter): 30.00 inches Hg (1016.0 mb)
Winds: from the SW (220 degrees) at 15 MPH (13 knots; 6.7 m/s)
Visibility: 6 or more miles (10+ km)
Ceiling: ceiling and visibility are OK
Clouds: unknown
Weather: no significant weather observed at this time

Forecast for: EGCN (DONCASTER SHEFFI, GB)
Text: TAF EGCN 051658Z 0518/0618 23009KT 9999 SCT025
Forecast period: 1800 UTC 05 October 2022 to 1800 UTC 06 October 2022
Forecast type: FROM: standard forecast or significant change
Winds: from the SW (230 degrees) at 10 MPH (9 knots; 4.6 m/s)
Visibility: 6 or more miles (10+ km)
Ceiling: at least 12,000 feet AGL
Clouds: scattered clouds at 2500 feet AGL
Weather: no significant weather forecast for this period
Text: PROB30
Forecast period: 1800 UTC 05 October 2022 to 1800 UTC 06 October 2022
Forecast type: TEMPORARY: The following changes expected for less than half the time period
Winds: from the WSW (240 degrees) at 17 MPH (15 knots; 7.7 m/s)
gusting to 29 MPH (25 knots; 12.9 m/s)
Visibility: missing
Ceiling: unknown
Clouds: missing
Weather: no significant weather forecast for this period
Text: TEMPO 0518/0618 24015G25KT
Forecast period: 1800 to 2200 UTC 05 October 2022
Forecast type: TEMPORARY: The following changes expected for less than half the time period
Visibility: 4 miles (7 km)
Ceiling: unknown
Clouds: missing
Weather: SHRA  (rain showers)
Text: PROB30
Forecast period: 1100 to 1400 UTC 06 October 2022
Forecast type: TEMPORARY: The following changes expected for less than half the time period
Visibility: 4 miles (6 km)
Ceiling: unknown
Clouds: missing
Weather: -RA -DZ  (light rain, light drizzle)